Terminal Aerodrome Forecast
Issued by NWS

Home | Current Version | Previous Version | Text Only | Print | Product List | Glossary On
Versions: 1 2 3 4 5 6 7 8 9 10 11 12 13 14 15 16 17 18 19 20 21 22
000
FTUS41 KBGM 021400 AAA
TAFELM
TAF AMD
KELM 021434Z 0215/0312 29015G25KT P6SM -SHSN SCT025 BKN035
     FM030000 30010KT P6SM BKN040
     FM030300 VRB03KT P6SM SKC=

USA.gov is the U.S. government's official web portal to all federal, state and local government web resources and services.